Time;durP1;ratioP1;P1;durP2;ratioP2;P2;SDS_P1;SDS_P2;PMS_P1;PMS_P2;Temp;Humidity;BMP_temperature;BMP_pressure;BME280_temperature;BME280_humidity;BME280_pressure;Samples;Min_cycle;Max_cycle;Signal;HPM_P1;HPM_P2
2021/12/27 00:00:35;;;;;;;22.03;11.03;;;-0.20;95.80;;;-2.83;73.01;99768.41;10377027;28;99035;-77
2021/12/27 00:05:38;;;;;;;20.13;8.37;;;-0.40;96.30;;;-2.96;73.57;99765.72;10399235;27;97415;-77
2021/12/27 00:10:41;;;;;;;18.90;9.43;;;-0.50;97.10;;;-3.04;74.36;99766.22;10398128;27;97284;-77
2021/12/27 00:15:44;;;;;;;22.37;9.73;;;-0.60;97.90;;;-3.09;74.76;99770.00;10394183;28;97021;-77
2021/12/27 00:20:47;;;;;;;25.27;13.27;;;-0.60;98.10;;;-3.13;74.80;99769.34;10397192;28;96467;-77
2021/12/27 00:25:51;;;;;;;21.27;8.90;;;-0.70;98.30;;;-3.15;74.79;99779.00;10401772;28;97459;-77
2021/12/27 00:30:54;;;;;;;16.13;6.93;;;-0.70;98.30;;;-3.15;74.50;99775.56;10376154;28;96830;-76
2021/12/27 00:35:57;;;;;;;15.97;6.90;;;-0.70;98.30;;;-3.13;74.27;99771.09;10392483;28;97093;-76
2021/12/27 00:41:00;;;;;;;14.03;6.27;;;-0.70;98.60;;;-3.09;74.70;99767.41;10388768;28;96745;-76
2021/12/27 00:46:03;;;;;;;14.87;6.07;;;-0.60;98.90;;;-3.07;74.91;99768.13;10390913;28;96910;-76
2021/12/27 00:51:08;;;;;;;20.00;8.80;;;-0.70;99.00;;;-3.07;74.90;99766.38;10375531;28;96941;-76
2021/12/27 00:56:11;;;;;;;21.13;9.80;;;-0.70;99.30;;;-3.05;74.72;99774.94;10377254;28;97757;-76
2021/12/27 01:01:14;;;;;;;19.10;7.30;;;-0.60;99.30;;;-3.02;74.77;99785.13;10381577;28;96645;-76
2021/12/27 01:06:17;;;;;;;10.97;5.97;;;-0.60;99.50;;;-3.00;75.08;99778.09;10384486;28;97147;-76
2021/12/27 01:16:27;;;;;;;11.63;5.80;;;-0.60;99.90;;;-2.93;75.41;99772.53;10389400;27;97985;-76
2021/12/27 01:21:31;;;;;;;14.63;6.10;;;-0.60;99.90;;;-2.95;75.53;99770.00;10386423;28;98674;-76
2021/12/27 01:26:34;;;;;;;12.67;6.97;;;-0.60;99.90;;;-2.99;75.66;99755.53;10395324;28;96576;-76
2021/12/27 01:31:36;;;;;;;15.50;6.27;;;-0.60;99.90;;;-3.06;75.95;99762.88;10369721;28;96721;-77
2021/12/27 01:36:39;;;;;;;17.83;7.93;;;-0.70;99.90;;;-3.12;76.38;99762.38;10393477;28;96706;-77
2021/12/27 01:41:42;;;;;;;20.07;8.43;;;-0.70;99.90;;;-3.19;76.57;99766.28;10369318;28;97356;-76
2021/12/27 01:46:45;;;;;;;25.77;10.33;;;-0.80;99.90;;;-3.24;76.76;99758.75;10380813;28;98406;-76
2021/12/27 01:51:48;;;;;;;20.20;8.23;;;-0.80;99.90;;;-3.29;77.31;99755.63;10403407;28;98285;-76
2021/12/27 01:56:54;;;;;;;17.37;8.90;;;-0.90;99.90;;;-3.34;77.53;99755.03;10390213;28;98047;-75
2021/12/27 02:01:57;;;;;;;20.07;9.87;;;-0.90;99.90;;;-3.39;78.07;99759.66;10371533;28;98432;-76
2021/12/27 02:07:00;;;;;;;21.20;10.13;;;-1.00;99.90;;;-3.45;78.12;99760.88;10387461;28;97252;-75
2021/12/27 02:12:04;;;;;;;23.80;10.83;;;-1.00;99.90;;;-3.51;78.58;99761.22;10378446;28;96522;-76
2021/12/27 02:17:07;;;;;;;21.90;10.53;;;-1.00;99.90;;;-3.55;78.83;99765.75;10389702;28;96998;-76
2021/12/27 02:22:10;;;;;;;29.83;10.90;;;-1.10;99.90;;;-3.60;79.13;99778.19;10384897;28;96657;-76
2021/12/27 02:27:15;;;;;;;22.97;10.70;;;-1.20;99.90;;;-3.62;79.41;99774.00;10379864;28;96964;-76
2021/12/27 02:32:19;;;;;;;37.10;14.83;;;-1.20;99.90;;;-3.66;79.86;99765.53;10375436;28;96974;-76
2021/12/27 02:37:22;;;;;;;27.30;12.23;;;-1.20;99.90;;;-3.69;80.01;99764.88;10388709;28;96970;-76
2021/12/27 02:42:24;;;;;;;31.87;12.83;;;-1.30;99.90;;;-3.71;80.24;99764.16;10390647;28;98727;-75
2021/12/27 02:47:27;;;;;;;30.60;13.73;;;-1.30;99.90;;;-3.73;80.40;99771.16;10388973;28;98190;-76
2021/12/27 02:52:30;;;;;;;24.63;11.03;;;-1.30;99.90;;;-3.78;80.62;99761.91;10385950;28;99040;-76
2021/12/27 02:57:33;;;;;;;15.37;7.50;;;-1.30;99.90;;;-3.76;80.40;99764.41;10388811;28;96792;-76
2021/12/27 03:02:39;;;;;;;15.03;6.83;;;-1.40;99.90;;;-3.75;80.31;99763.47;10379064;28;97277;-76
2021/12/27 03:07:42;;;;;;;13.37;7.37;;;-1.30;99.90;;;-3.73;80.58;99753.81;10396677;28;96631;-76
2021/12/27 03:12:46;;;;;;;18.17;8.07;;;-1.30;99.90;;;-3.71;80.43;99746.81;10383901;28;96521;-77
2021/12/27 03:17:53;;;;;;;20.27;8.27;;;-1.30;99.90;;;-3.72;80.38;99741.69;10383069;28;96643;-76
2021/12/27 03:22:56;;;;;;;16.57;7.73;;;-1.30;99.90;;;-3.74;80.69;99744.38;10380638;28;97311;-76
2021/12/27 03:27:59;;;;;;;14.27;7.63;;;-1.30;99.90;;;-3.75;80.60;99741.88;10376937;28;96738;-76
2021/12/27 03:33:04;;;;;;;17.23;7.97;;;-1.30;99.90;;;-3.76;80.87;99743.63;10406019;28;98465;-76
2021/12/27 03:38:10;;;;;;;16.50;7.60;;;-1.30;99.90;;;-3.75;81.24;99731.47;10394470;28;96816;-76
2021/12/27 03:43:13;;;;;;;16.93;7.40;;;-1.40;99.90;;;-3.73;81.25;99732.22;10391621;28;96971;-76
2021/12/27 03:48:17;;;;;;;17.83;8.00;;;-1.40;99.90;;;-3.71;81.65;99744.22;10384097;27;96985;-76
2021/12/27 03:53:21;;;;;;;29.43;15.30;;;-1.30;99.90;;;-3.71;81.62;99744.22;10381163;28;97067;-76
2021/12/27 03:58:34;;;;;;;29.40;15.43;;;-1.30;99.90;;;-3.66;81.70;99743.91;10384859;28;96767;-76
2021/12/27 04:03:37;;;;;;;18.00;8.50;;;-1.30;99.90;;;-3.61;81.62;99745.31;10382315;28;98213;-76
2021/12/27 04:08:41;;;;;;;16.30;7.53;;;-1.30;99.90;;;-3.56;81.69;99743.31;10386646;28;96543;-76
2021/12/27 04:13:44;;;;;;;14.00;6.90;;;-1.20;99.90;;;-3.54;81.65;99744.06;10378927;28;96895;-76
2021/12/27 04:18:47;;;;;;;21.67;9.03;;;-1.20;99.90;;;-3.52;81.55;99734.41;10373669;28;99180;-76
2021/12/27 04:23:50;;;;;;;16.83;8.17;;;-1.10;99.90;;;-3.49;81.04;99741.19;10389904;28;97087;-75
2021/12/27 04:28:53;;;;;;;21.60;10.33;;;-1.10;99.90;;;-3.48;80.88;99729.84;10377025;28;96795;-75
2021/12/27 04:33:56;;;;;;;37.77;14.40;;;-1.10;99.90;;;-3.46;80.90;99727.19;10385408;28;97239;-75
2021/12/27 04:38:59;;;;;;;28.30;12.80;;;-1.10;99.90;;;-3.48;81.44;99724.66;10383645;28;97317;-75
2021/12/27 04:44:03;;;;;;;26.60;11.40;;;-1.10;99.90;;;-3.52;81.81;99728.38;10387278;27;96616;-75
2021/12/27 04:49:06;;;;;;;31.17;12.80;;;-1.10;99.90;;;-3.58;81.70;99734.78;10381772;28;98303;-75
2021/12/27 04:54:09;;;;;;;37.70;15.20;;;-1.20;99.90;;;-3.62;81.74;99728.06;10390707;28;96691;-75
2021/12/27 04:59:12;;;;;;;30.40;12.80;;;-1.20;99.90;;;-3.68;81.91;99723.25;10392701;28;96632;-75
2021/12/27 05:04:15;;;;;;;31.70;14.17;;;-1.20;99.90;;;-3.75;81.78;99731.47;10384738;28;97314;-75
2021/12/27 05:09:19;;;;;;;29.87;14.20;;;-1.30;99.90;;;-3.82;82.13;99729.25;10395037;28;96901;-75
2021/12/27 05:14:22;;;;;;;32.63;13.87;;;-1.40;99.90;;;-3.87;82.31;99733.03;10403986;28;96592;-75
2021/12/27 05:19:25;;;;;;;30.97;14.00;;;-1.40;99.90;;;-3.91;82.51;99734.13;10386060;28;97118;-75
2021/12/27 05:24:29;;;;;;;32.37;13.93;;;-1.50;99.90;;;-3.96;82.89;99725.75;10366654;28;96550;-75
2021/12/27 05:29:31;;;;;;;31.47;14.77;;;-1.50;99.90;;;-3.99;83.01;99733.72;10371745;28;96853;-75
2021/12/27 05:34:36;;;;;;;34.90;14.60;;;-1.50;99.90;;;-4.03;83.40;99723.50;10383031;28;97968;-76
2021/12/27 05:39:39;;;;;;;24.67;12.33;;;-1.60;99.90;;;-4.05;83.42;99725.38;10374387;28;96722;-76
2021/12/27 05:44:42;;;;;;;27.10;12.20;;;-1.60;99.90;;;-4.07;83.42;99721.19;10386660;28;97739;-75
2021/12/27 05:49:46;;;;;;;24.33;10.83;;;-1.60;99.90;;;-4.07;83.64;99727.22;10381872;28;96904;-77
2021/12/27 05:54:49;;;;;;;35.03;14.67;;;-1.60;99.90;;;-4.08;83.48;99720.38;10374677;28;97901;-76
2021/12/27 05:59:52;;;;;;;21.77;10.63;;;-1.60;99.90;;;-4.10;83.74;99719.59;10392082;27;96979;-75
2021/12/27 06:04:55;;;;;;;23.00;10.37;;;-1.70;99.90;;;-4.12;83.70;99724.03;10401506;28;97019;-75
2021/12/27 06:09:59;;;;;;;21.53;10.70;;;-1.70;99.90;;;-4.13;83.70;99724.97;10375999;28;97043;-75
2021/12/27 06:15:03;;;;;;;25.37;11.07;;;-1.70;99.90;;;-4.14;83.80;99723.31;10378689;28;96773;-75
2021/12/27 06:20:17;;;;;;;19.77;10.00;;;-1.70;99.90;;;-4.15;84.06;99724.19;10372905;28;98699;-75
2021/12/27 06:25:20;;;;;;;29.00;12.60;;;-1.70;99.90;;;-4.17;83.99;99715.69;10389473;28;97123;-75
2021/12/27 06:30:25;;;;;;;31.03;13.53;;;-1.70;99.90;;;-4.16;84.73;99721.69;10378306;28;96697;-75
2021/12/27 06:35:28;;;;;;;25.10;11.80;;;-1.80;99.90;;;-4.17;84.56;99723.47;10376817;28;97514;-75
2021/12/27 06:40:31;;;;;;;23.63;11.23;;;-1.80;99.90;;;-4.16;84.88;99727.72;10380784;28;98099;-75
2021/12/27 06:45:33;;;;;;;28.70;11.87;;;-1.80;99.90;;;-4.15;85.16;99721.59;10379825;28;97116;-75
2021/12/27 06:50:37;;;;;;;21.93;11.80;;;-1.80;99.90;;;-4.16;84.87;99722.53;10410362;28;96554;-75
2021/12/27 06:55:40;;;;;;;24.37;10.73;;;-1.80;99.90;;;-4.15;85.12;99725.97;10389438;28;96580;-75
2021/12/27 07:00:43;;;;;;;17.77;9.47;;;-1.80;99.90;;;-4.15;84.98;99719.00;10385363;28;97064;-75
2021/12/27 07:05:48;;;;;;;20.83;9.53;;;-1.80;99.90;;;-4.11;85.14;99717.09;10389791;28;97229;-76
2021/12/27 07:10:52;;;;;;;33.20;16.23;;;-1.70;99.90;;;-4.06;85.35;99721.09;10389083;28;96518;-76
2021/12/27 07:15:55;;;;;;;30.17;14.57;;;-1.70;99.90;;;-4.00;85.23;99717.31;10377077;28;96961;-76
2021/12/27 07:20:58;;;;;;;40.33;17.23;;;-1.60;99.90;;;-3.94;85.22;99710.94;10401555;28;96540;-76
2021/12/27 07:26:02;;;;;;;34.50;15.83;;;-1.60;99.90;;;-3.88;85.49;99716.63;10385676;28;96531;-76
2021/12/27 07:31:05;;;;;;;29.10;12.17;;;-1.50;99.90;;;-3.80;85.36;99713.56;10380609;28;98044;-78
2021/12/27 07:36:10;;;;;;;22.67;10.90;;;-1.50;99.90;;;-3.71;85.50;99714.81;10383732;28;98647;-77
2021/12/27 07:41:13;;;;;;;22.83;11.13;;;-1.40;99.90;;;-3.63;85.10;99707.41;10394370;27;96932;-77
2021/12/27 07:46:16;;;;;;;32.87;16.07;;;-1.30;99.90;;;-3.51;85.00;99711.88;10374957;28;97047;-77
2021/12/27 07:51:19;;;;;;;60.07;27.90;;;-1.30;99.90;;;-3.41;84.99;99704.38;10394064;28;96768;-78
2021/12/27 07:56:22;;;;;;;49.70;27.60;;;-1.20;99.90;;;-3.30;84.97;99708.00;10367093;28;98135;-77
2021/12/27 08:01:25;;;;;;;49.40;23.27;;;-1.10;99.90;;;-3.16;84.73;99706.34;10383400;28;96920;-77
2021/12/27 08:06:28;;;;;;;48.03;22.60;;;-1.00;99.90;;;-3.02;84.78;99704.56;10386978;28;98235;-78
2021/12/27 08:11:32;;;;;;;60.00;28.83;;;-0.80;99.90;;;-2.86;84.54;99698.41;10382254;28;98730;-78
2021/12/27 08:16:34;;;;;;;73.00;31.90;;;-0.70;99.90;;;-2.73;84.21;99700.16;10385409;28;97956;-78
2021/12/27 08:21:38;;;;;;;43.97;20.90;;;-0.60;99.90;;;-2.59;83.86;99694.06;10381037;28;96735;-78
2021/12/27 08:26:41;;;;;;;50.40;20.13;;;-0.50;99.90;;;-2.46;82.53;99691.53;10384920;28;97636;-77
2021/12/27 08:31:45;;;;;;;43.80;20.20;;;-0.40;99.90;;;-2.30;82.24;99694.00;10400622;28;96861;-78
2021/12/27 08:36:47;;;;;;;42.77;19.20;;;-0.30;99.90;;;-2.15;81.79;99687.81;10369968;28;97151;-79
2021/12/27 08:41:51;;;;;;;213.60;67.80;;;-0.10;99.90;;;-2.01;81.33;99698.16;10391832;28;97432;-78
2021/12/27 08:46:54;;;;;;;59.77;25.37;;;0.00;99.90;;;-1.86;81.10;99703.28;10375033;28;97131;-78
2021/12/27 08:51:57;;;;;;;55.20;25.57;;;0.20;99.90;;;-1.71;80.79;99710.09;10370421;28;97245;-78
2021/12/27 08:57:00;;;;;;;56.33;26.97;;;0.30;99.90;;;-1.57;80.75;99706.56;10373196;28;96913;-78
2021/12/27 09:02:05;;;;;;;66.33;28.53;;;0.50;99.90;;;-1.46;80.20;99712.72;10393336;27;96736;-78
2021/12/27 09:07:09;;;;;;;49.20;25.00;;;0.60;99.90;;;-1.36;79.88;99718.97;10385905;28;97333;-78
2021/12/27 09:12:12;;;;;;;44.90;22.73;;;0.70;99.90;;;-1.23;79.53;99715.53;10354849;28;96677;-78
2021/12/27 09:17:16;;;;;;;40.63;21.40;;;0.80;99.90;;;-1.11;79.10;99712.09;10366347;27;98031;-78
2021/12/27 09:22:20;;;;;;;42.27;21.03;;;0.90;99.90;;;-0.99;78.74;99693.00;10372413;28;99028;-78
2021/12/27 09:27:22;;;;;;;50.20;24.20;;;1.00;99.90;;;-0.80;78.58;99689.91;10347771;28;98685;-78
2021/12/27 09:32:26;;;;;;;52.17;24.83;;;1.20;99.90;;;-0.62;77.69;99677.34;10355675;28;98357;-79
2021/12/27 09:37:29;;;;;;;63.53;30.70;;;1.30;99.90;;;-0.42;77.03;99671.53;10347675;28;96992;-79
2021/12/27 09:42:35;;;;;;;65.00;30.93;;;1.50;99.90;;;-0.28;75.99;99673.97;10328612;28;97453;-78
2021/12/27 09:47:38;;;;;;;66.50;31.67;;;1.70;99.90;;;-0.12;75.64;99667.63;10342190;28;97238;-78
2021/12/27 09:52:52;;;;;;;50.97;23.30;;;1.80;99.90;;;-0.02;74.29;99664.22;10347359;28;96852;-78
2021/12/27 09:57:55;;;;;;;52.70;25.53;;;1.90;99.90;;;0.04;72.91;99660.31;10338388;28;97097;-78
2021/12/27 10:02:59;;;;;;;46.77;24.67;;;2.00;99.90;;;0.14;72.81;99652.63;10348735;28;97386;-78
2021/12/27 10:08:04;;;;;;;50.83;25.17;;;2.10;99.90;;;0.24;71.93;99651.84;10299676;28;97048;-79
2021/12/27 10:13:11;;;;;;;52.77;23.00;;;2.20;99.90;;;0.38;72.04;99648.19;10341077;28;97032;-78
2021/12/27 10:18:17;;;;;;;40.10;19.47;;;2.30;99.90;;;0.50;69.94;99652.47;10350425;28;96678;-78
2021/12/27 10:23:19;;;;;;;35.23;18.37;;;2.50;99.90;;;0.54;68.93;99642.63;10359430;28;97003;-79
2021/12/27 10:28:26;;;;;;;34.93;17.90;;;2.50;99.90;;;0.59;68.54;99644.88;10330042;28;96666;-79
2021/12/27 10:33:33;;;;;;;30.23;16.17;;;2.60;99.90;;;0.66;67.25;99632.97;10357385;28;97166;-80
2021/12/27 10:38:37;;;;;;;29.53;14.93;;;2.60;99.90;;;0.83;66.28;99621.22;10342178;28;97025;-84
2021/12/27 10:43:47;;;;;;;19.37;10.27;;;2.80;99.90;;;0.99;62.98;99629.53;10329774;28;98601;-86
2021/12/27 10:49:10;;;;;;;19.83;10.47;;;2.90;98.80;;;1.07;60.21;99625.34;10349546;28;97068;-80
2021/12/27 10:54:13;;;;;;;17.10;8.47;;;3.00;95.50;;;1.17;58.91;99617.59;10336188;28;98118;-90
2021/12/27 10:59:20;;;;;;;15.97;7.97;;;3.20;95.30;;;1.24;56.13;99618.78;10355950;28;97200;-80
2021/12/27 11:04:23;;;;;;;15.67;7.73;;;3.20;92.80;;;1.30;56.27;99618.28;10345150;28;98094;-79
2021/12/27 11:09:26;;;;;;;14.40;7.50;;;3.30;91.50;;;1.31;55.00;99617.31;10331868;28;97409;-80
2021/12/27 11:14:29;;;;;;;13.67;7.20;;;3.30;90.00;;;1.33;53.66;99610.19;10329510;28;98114;-80
2021/12/27 11:19:32;;;;;;;11.53;7.13;;;3.30;84.70;;;1.29;52.46;99606.16;10348582;28;98764;-81
2021/12/27 11:24:39;;;;;;;16.70;7.33;;;3.30;77.10;;;1.27;53.08;99605.44;10336310;28;97951;-81
2021/12/27 11:30:09;;;;;;;21.27;9.33;;;3.30;84.40;;;1.32;52.83;99603.31;10334039;28;99930;-81
2021/12/27 11:35:19;;;;;;;20.77;8.73;;;3.30;85.70;;;1.40;53.92;99601.84;10371983;28;96717;-81
2021/12/27 11:40:22;;;;;;;23.27;8.37;;;3.40;85.70;;;1.40;52.97;99601.84;10384971;28;98563;-81
2021/12/27 11:45:50;;;;;;;16.33;7.47;;;3.40;85.20;;;1.43;53.32;99594.56;10390038;27;99137;-81
2021/12/27 11:51:08;;;;;;;16.20;8.03;;;3.50;83.10;;;1.46;53.97;99583.84;10382323;28;97122;-81
2021/12/27 11:56:18;;;;;;;20.30;9.10;;;3.50;83.60;;;1.46;54.45;99577.78;10362248;28;96890;-81
2021/12/27 12:01:20;;;;;;;20.40;9.37;;;3.50;83.00;;;1.44;55.22;99577.91;10385718;28;96842;-81
2021/12/27 12:06:43;;;;;;;25.80;10.33;;;3.50;84.20;;;1.41;55.86;99570.28;10380084;28;97406;-82
2021/12/27 12:12:04;;;;;;;15.40;7.50;;;3.50;84.30;;;1.43;55.41;99572.78;10368132;28;97049;-81
2021/12/27 12:17:11;;;;;;;18.00;8.40;;;3.50;82.70;;;1.38;54.99;99569.69;10367138;28;98583;-85
2021/12/27 12:22:44;;;;;;;14.20;7.37;;;3.50;81.90;;;1.31;55.48;99559.72;10368354;28;96997;-82
2021/12/27 12:27:58;;;;;;;14.82;7.65;;;3.40;82.70;;;1.27;55.76;99560.13;10361192;28;101299;-83
2021/12/27 12:33:05;;;;;;;14.27;7.87;;;3.40;82.00;;;1.22;56.47;99560.50;10385702;28;97298;-83
2021/12/27 12:38:29;;;;;;;15.07;7.80;;;3.30;82.30;;;1.19;56.53;99550.25;10379764;28;98875;-84
2021/12/27 12:43:54;;;;;;;18.50;7.87;;;3.30;82.80;;;1.15;56.12;99548.84;10387641;28;98297;-82
2021/12/27 12:49:22;;;;;;;15.03;7.60;;;3.20;82.90;;;1.11;56.29;99550.06;10376410;28;96621;-82
2021/12/27 12:54:29;;;;;;;16.67;8.00;;;3.20;83.10;;;1.08;56.03;99550.31;10373972;28;98161;-82
2021/12/27 12:59:55;;;;;;;16.27;8.73;;;3.20;82.30;;;1.04;55.84;99546.28;10366750;27;98340;-78
2021/12/27 13:05:08;;;;;;;20.37;9.47;;;3.20;82.40;;;1.00;56.29;99547.47;10383835;28;97754;-79
2021/12/27 13:10:30;;;;;;;15.17;7.40;;;3.10;82.70;;;0.97;55.24;99545.09;10365945;28;98379;-79
2021/12/27 13:15:55;;;;;;;13.95;8.10;;;3.10;81.50;;;0.92;54.76;99552.47;10383154;28;98479;-80
2021/12/27 13:21:07;;;;;;;15.67;7.17;;;3.00;80.40;;;0.89;55.77;99540.47;10398217;28;96682;-77
2021/12/27 13:26:15;;;;;;;;;;;3.00;82.50;;;0.86;56.09;99532.88;10375978;28;98571;-77
2021/12/27 13:31:25;;;;;;;25.43;11.90;;;2.90;80.00;;;0.79;56.47;99535.16;10365017;28;98491;-81
2021/12/27 13:36:43;;;;;;;24.37;12.07;;;2.90;81.90;;;0.77;57.98;99539.66;10374644;28;97127;-81
2021/12/27 13:42:05;;;;;;;27.40;11.47;;;2.90;83.50;;;0.79;58.12;99536.94;10378026;27;98130;-81
2021/12/27 13:47:11;;;;;;;;;;;2.90;84.10;;;0.83;58.18;99537.50;10368527;28;96748;-81
2021/12/27 13:52:18;;;;;;;18.43;10.10;;;2.90;81.30;;;0.88;58.63;99545.81;10376572;27;96570;-81
2021/12/27 13:57:32;;;;;;;18.93;9.60;;;3.00;84.10;;;0.94;58.89;99542.72;10368330;28;96560;-82
2021/12/27 14:02:43;;;;;;;23.47;10.87;;;3.00;84.80;;;0.98;57.65;99531.91;10363634;28;96974;-83
2021/12/27 14:07:47;;;;;;;22.45;10.10;;;3.10;84.70;;;0.99;57.67;99537.94;10362149;28;96621;-83
2021/12/27 14:13:01;;;;;;;24.27;11.67;;;3.00;82.80;;;0.95;56.95;99541.75;10392367;28;96883;-83
2021/12/27 14:18:17;;;;;;;23.17;11.57;;;3.00;82.50;;;0.88;56.94;99545.81;10365351;28;98328;-83
2021/12/27 14:23:20;;;;;;;26.93;13.90;;;3.00;83.50;;;0.84;57.49;99544.41;10375444;28;96579;-82
2021/12/27 14:28:23;;;;;;;24.63;12.27;;;3.00;82.80;;;0.77;57.88;99531.81;10389776;28;96559;-81
2021/12/27 14:33:27;;;;;;;37.87;21.33;;;2.90;82.80;;;0.69;56.96;99528.97;10395191;28;96847;-82
2021/12/27 14:38:30;;;;;;;28.53;12.80;;;2.90;83.50;;;0.58;57.98;99529.00;10368529;28;96891;-82
2021/12/27 14:43:33;;;;;;;26.70;14.20;;;2.80;83.70;;;0.53;59.34;99524.13;10375091;28;98601;-82
2021/12/27 14:48:36;;;;;;;31.83;16.50;;;2.70;84.30;;;0.49;60.97;99529.72;10366180;28;98452;-82
2021/12/27 14:53:39;;;;;;;37.30;16.93;;;2.70;85.00;;;0.38;60.73;99522.72;10372299;28;96895;-82
2021/12/27 14:58:42;;;;;;;39.33;17.00;;;2.60;85.10;;;0.31;61.15;99518.09;10364244;28;97550;-81
2021/12/27 15:03:45;;;;;;;27.73;13.43;;;2.60;85.30;;;0.20;60.99;99524.97;10372721;28;97477;-81
2021/12/27 15:08:52;;;;;;;24.57;11.97;;;2.50;85.10;;;0.11;61.16;99524.84;10385823;28;96752;-82
2021/12/27 15:13:55;;;;;;;22.23;11.13;;;2.40;85.70;;;0.01;60.66;99514.28;10366508;28;97625;-82
2021/12/27 15:18:58;;;;;;;26.13;11.67;;;2.30;85.40;;;-0.08;61.15;99514.97;10392008;28;96999;-82
2021/12/27 15:24:01;;;;;;;24.70;12.33;;;2.20;85.70;;;-0.15;61.12;99526.84;10419517;27;96496;-82
2021/12/27 15:29:05;;;;;;;27.83;13.67;;;2.10;86.00;;;-0.23;61.12;99522.19;10366357;28;97123;-82
2021/12/27 15:34:08;;;;;;;27.20;12.37;;;2.10;86.30;;;-0.27;61.70;99536.41;10375719;28;98026;-81
2021/12/27 15:39:11;;;;;;;26.70;12.63;;;2.00;86.70;;;-0.33;61.47;99545.53;10317047;28;97662;-81
2021/12/27 15:44:14;;;;;;;27.47;13.53;;;2.00;86.40;;;-0.37;61.65;99541.50;10318784;28;96854;-81
2021/12/27 15:49:18;;;;;;;32.97;15.20;;;1.90;86.90;;;-0.42;61.77;99529.72;10352987;28;96925;-81
2021/12/27 15:54:21;;;;;;;28.77;14.43;;;1.90;87.10;;;-0.44;62.25;99539.47;10334149;28;98945;-81
2021/12/27 15:59:24;;;;;;;34.83;16.50;;;1.80;87.40;;;-0.46;62.29;99551.81;10332192;28;98093;-81
2021/12/27 16:04:27;;;;;;;33.53;15.53;;;1.80;87.50;;;-0.48;62.60;99549.31;10330596;28;98232;-82
2021/12/27 16:09:30;;;;;;;31.73;14.37;;;1.80;87.80;;;-0.50;62.84;99550.34;10354756;28;96539;-81
2021/12/27 16:14:35;;;;;;;25.23;12.93;;;1.80;87.30;;;-0.53;63.08;99550.59;10329481;28;97439;-82
2021/12/27 16:19:38;;;;;;;31.87;15.30;;;1.70;87.70;;;-0.57;63.08;99545.59;10343366;28;96990;-81
2021/12/27 16:24:42;;;;;;;30.13;14.03;;;1.70;88.10;;;-0.58;62.74;99545.72;10331563;28;98797;-81
2021/12/27 16:29:44;;;;;;;30.53;14.60;;;1.70;88.00;;;-0.61;62.70;99551.13;10321947;28;96956;-81
2021/12/27 16:34:48;;;;;;;35.73;16.00;;;1.70;87.80;;;-0.63;61.96;99546.03;10340974;28;97913;-80
2021/12/27 16:39:53;;;;;;;38.63;16.90;;;1.60;87.20;;;-0.64;61.85;99551.38;10362603;28;97401;-80
2021/12/27 16:44:55;;;;;;;46.17;20.00;;;1.70;87.10;;;-0.67;62.05;99543.75;10362083;27;97051;-81
2021/12/27 16:49:58;;;;;;;47.07;19.90;;;1.60;87.50;;;-0.71;61.51;99552.78;10389797;28;96537;-82
2021/12/27 16:55:04;;;;;;;36.57;17.10;;;1.60;87.10;;;-0.77;62.23;99545.41;10352934;28;96928;-79
2021/12/27 17:00:10;;;;;;;50.37;18.23;;;1.50;87.20;;;-0.89;61.93;99542.72;10364378;28;96956;-80
2021/12/27 17:05:13;;;;;;;42.53;17.03;;;1.40;87.00;;;-0.99;61.67;99554.75;10366933;28;96935;-80
2021/12/27 17:10:16;;;;;;;42.37;18.77;;;1.40;86.40;;;-1.07;62.07;99562.31;10360525;28;98545;-85
2021/12/27 17:15:19;;;;;;;46.53;18.80;;;1.20;86.00;;;-1.11;62.20;99559.06;10365021;28;98605;-84
2021/12/27 17:20:23;;;;;;;32.50;14.23;;;1.20;86.60;;;-1.10;62.96;99559.91;10371269;28;96758;-81
2021/12/27 17:25:26;;;;;;;33.33;13.10;;;1.20;87.40;;;-1.10;63.13;99563.34;10368331;28;97085;-83
2021/12/27 17:30:30;;;;;;;37.30;16.23;;;1.20;87.60;;;-1.10;63.89;99562.50;10372257;28;96645;-80
2021/12/27 17:35:35;;;;;;;32.27;15.83;;;1.20;88.30;;;-1.08;64.54;99565.84;10341500;28;98999;-79
2021/12/27 17:40:37;;;;;;;38.30;18.10;;;1.20;89.00;;;-1.07;65.13;99572.75;10322998;28;98412;-79
2021/12/27 17:45:41;;;;;;;68.43;23.70;;;1.20;89.30;;;-1.07;65.68;99575.34;10328013;28;97061;-80
2021/12/27 17:50:44;;;;;;;35.77;15.30;;;1.20;90.10;;;-1.06;65.85;99574.41;10348617;28;97899;-79
2021/12/27 17:55:48;;;;;;;34.07;14.83;;;1.20;90.20;;;-1.06;65.29;99579.63;10314803;28;96676;-81
2021/12/27 18:00:53;;;;;;;32.83;12.90;;;1.20;90.20;;;-1.04;64.97;99582.94;10330184;28;98076;-82
2021/12/27 18:06:02;;;;;;;33.43;15.30;;;1.20;90.10;;;-1.01;63.91;99597.56;10327772;28;97672;-82
2021/12/27 18:11:06;;;;;;;109.70;26.67;;;1.20;88.80;;;-1.02;64.91;99596.72;10332519;28;97381;-81
2021/12/27 18:16:09;;;;;;;110.60;31.57;;;1.20;90.10;;;-1.03;65.40;99597.63;10318201;28;96864;-78
2021/12/27 18:21:12;;;;;;;68.03;22.10;;;1.20;90.40;;;-1.01;66.01;99598.38;10316711;28;96841;-84
2021/12/27 18:26:15;;;;;;;49.37;18.57;;;1.20;90.60;;;-1.01;66.10;99603.59;10317310;28;98403;-78
2021/12/27 18:31:18;;;;;;;46.70;17.83;;;1.20;90.60;;;-1.00;65.85;99600.03;10301542;28;96809;-78
2021/12/27 18:36:22;;;;;;;50.93;18.57;;;1.20;90.80;;;-0.97;65.54;99610.25;10342458;28;97891;-80
2021/12/27 18:41:25;;;;;;;40.47;17.93;;;1.20;90.80;;;-0.94;65.80;99606.59;10373886;28;97914;-78
2021/12/27 18:46:28;;;;;;;43.27;18.93;;;1.30;91.10;;;-0.91;65.65;99612.41;10389353;28;98521;-78
2021/12/27 18:51:31;;;;;;;48.77;19.60;;;1.30;91.00;;;-0.88;65.88;99604.38;10387258;28;97012;-79
2021/12/27 18:56:34;;;;;;;43.93;17.83;;;1.30;90.90;;;-0.85;66.32;99598.94;10378439;28;98004;-78
2021/12/27 19:01:36;;;;;;;53.77;22.53;;;1.40;91.40;;;-0.79;66.76;99599.44;10389013;28;98739;-78
2021/12/27 19:06:40;;;;;;;51.30;21.23;;;1.40;91.60;;;-0.78;66.57;99604.56;10390755;28;98149;-78
2021/12/27 19:11:43;;;;;;;60.97;23.00;;;1.40;91.50;;;-0.76;65.24;99588.81;10385606;28;96908;-78
2021/12/27 19:16:46;;;;;;;58.37;24.73;;;1.40;91.20;;;-0.76;64.48;99592.25;10387965;28;97832;-78
2021/12/27 19:21:50;;;;;;;47.80;19.83;;;1.50;90.80;;;-0.74;64.56;99599.94;10379248;28;96975;-79
2021/12/27 19:26:54;;;;;;;37.17;16.40;;;1.50;90.90;;;-0.78;64.00;99594.13;10379313;28;98472;-79
2021/12/27 19:31:58;;;;;;;48.27;22.07;;;1.50;90.80;;;-0.77;63.21;99594.97;10388573;28;96938;-78
2021/12/27 19:37:04;;;;;;;42.80;19.90;;;1.40;90.00;;;-0.78;64.05;99588.91;10389919;28;96761;-79
2021/12/27 19:42:07;;;;;;;45.80;20.30;;;1.40;90.60;;;-0.80;63.65;99590.78;10394174;28;97051;-78
2021/12/27 19:47:10;;;;;;;50.17;21.73;;;1.40;90.60;;;-0.82;64.91;99596.13;10382940;27;98311;-78
2021/12/27 19:52:14;;;;;;;48.53;20.17;;;1.40;90.70;;;-0.83;64.92;99596.25;10396045;28;98054;-78
2021/12/27 19:57:17;;;;;;;50.13;21.10;;;1.40;90.60;;;-0.88;64.65;99607.00;10371405;28;97685;-78
2021/12/27 20:02:20;;;;;;;38.17;19.50;;;1.40;90.40;;;-0.89;65.36;99596.69;10394771;27;97023;-79
2021/12/27 20:07:23;;;;;;;51.37;21.30;;;1.40;91.00;;;-0.91;65.77;99593.31;10402489;28;97454;-79
2021/12/27 20:12:28;;;;;;;48.77;21.97;;;1.30;91.20;;;-0.93;66.21;99585.63;10371010;27;99201;-79
2021/12/27 20:17:31;;;;;;;45.40;22.30;;;1.30;91.50;;;-0.91;66.92;99583.72;10363545;28;97604;-78
2021/12/27 20:22:34;;;;;;;47.70;20.93;;;1.30;91.60;;;-0.94;66.98;99583.97;10366116;28;97160;-78
2021/12/27 20:27:37;;;;;;;56.43;22.73;;;1.30;91.70;;;-0.98;66.90;99582.50;10384823;28;98519;-79
2021/12/27 20:32:42;;;;;;;57.27;22.77;;;1.30;91.60;;;-1.01;66.85;99582.75;10361195;28;96595;-79
2021/12/27 20:37:46;;;;;;;44.53;21.13;;;1.20;91.80;;;-1.06;67.77;99577.00;10364794;27;96938;-80
2021/12/27 20:42:51;;;;;;;45.47;21.10;;;1.20;92.20;;;-1.12;68.23;99569.63;10374321;27;97913;-79
2021/12/27 20:47:55;;;;;;;45.00;20.00;;;1.20;92.40;;;-1.20;68.27;99566.72;10396442;28;98727;-78
2021/12/27 20:52:59;;;;;;;48.40;19.07;;;1.10;92.50;;;-1.29;69.11;99567.38;10375593;28;97006;-79
2021/12/27 20:58:03;;;;;;;33.50;16.67;;;1.00;92.80;;;-1.44;69.85;99572.72;10383810;28;97146;-77
2021/12/27 21:03:06;;;;;;;38.20;17.03;;;0.90;93.20;;;-1.59;70.33;99570.34;10381918;28;98099;-78